Doylestown Airport

KDYL · 宾夕法尼亚州, 美国

罗盘
风向 的 风向 320° Doylestown Airport 5/23
风: 8 kt, 3 beaufort

2 kt

8 kt
改变
0 1.000 2.000 3.000 4.000 5.000
SCT 4.400 ft
METAR KDYL 081954Z AUTO 32008KT 10SM SCT044 09/M01 A3022 RMK AO2 SLP234 T00941006

METAR Doylestown Airport - KDYL/DYL

Doylestown Airport是,美国中的小机场。 该机场有一条跑道: 5/23. 该领域的国际民航组织标志是KDYL 它的国际航空运输协会代码是DYL.

这份报告是针对2022年12月8日 14:54, 当地时间在Doylestown Airport进行的。

机场观察

风向为320°,速度为8 kt。

可见度为10 mi。

有疏云,零星散落的云朵在4.400 ft的高度。 没有观察到天花板。

温度为9 °C,阵风为5 °C。 露点为-1 °C,相对湿度为50%。 海平面上的气压为30,22 inHg (QNH)。

白天

今天,太阳从07:10升起,在16:34降落。 这适用于Doylestown Airport,世界夏令时可能有所不同。 当地时间与世界标准时间之间的时差为-5 小时。 当前,没有夏令时有效。

公司介绍

在这个机场,你可以找到飞行学校。 本场上唯一已知的公司是Leading Edge Aviation。

体会

到Vliegles.nl去找飞行课程,跳伞和其他飞行体验。 浏览页面,了解Doylestown Airport附近所有可用的活动。 你也可以使用搜索功能来寻找你所在地附近的特定飞行课程、跳伞或其他飞行体验。

跑道

Id 标题 侧风 逆风 侧风 %
5/23 036°-216° 8 kt 2 kt 97 %

逆风成分最大的方向会被突出显示,并用于横风计算。 这并不一定意味着这个方向在使用。

乌云

4.400 ft SCT 疏云,零星散落的云朵

温度 & 天气

温度 9,4 °C
露点 -0,6 °C
相对湿度 50%
风寒 5 °C
Kp-index 2 (0-9)

评论

AO2自动气象站,可确定降水类型
SLP234海平面压力为30,22 inHg (30,22 inHg)
T00941006温度为9,4 °C (48,9 °F),露点为-0,6 °C (30,9 °F)

白天

日出
07:10
中午
11:52
日落
16:34 (44m)

小工具

你想在你的网站上有一个关于Doylestown Airport的当前航空天气(METAR)的小部件吗?

显示HTML代码

我们和第三方通过cookies跟踪您在我们网站上的互联网行为。如果你继续,我们认为你同意我们的饼干政策